sensor_id;sensor_type;location;lat;lon;timestamp;pressure;altitude;pressure_sealevel;temperature;humidity
72055;BME280;59936;51.490;5.436;2023-04-22T00:01:43;100676.19;;;6.20;77.85
72055;BME280;59936;51.490;5.436;2023-04-22T00:04:09;100673.34;;;6.21;83.22
72055;BME280;59936;51.490;5.436;2023-04-22T00:06:35;100677.44;;;6.16;78.99
72055;BME280;59936;51.490;5.436;2023-04-22T00:09:01;100670.72;;;6.12;77.98
72055;BME280;59936;51.490;5.436;2023-04-22T00:11:27;100672.22;;;6.05;76.84
72055;BME280;59936;51.490;5.436;2023-04-22T00:13:53;100680.47;;;6.02;76.75
72055;BME280;59936;51.490;5.436;2023-04-22T00:16:19;100675.59;;;5.97;76.68
72055;BME280;59936;51.490;5.436;2023-04-22T00:18:45;100669.59;;;5.95;77.41
72055;BME280;59936;51.490;5.436;2023-04-22T00:21:11;100674.72;;;5.87;76.60
72055;BME280;59936;51.490;5.436;2023-04-22T00:23:36;100679.47;;;5.83;76.55
72055;BME280;59936;51.490;5.436;2023-04-22T00:26:02;100668.13;;;5.81;76.24
72055;BME280;59936;51.490;5.436;2023-04-22T00:28:28;100678.50;;;5.84;75.94
72055;BME280;59936;51.490;5.436;2023-04-22T00:30:54;100677.09;;;5.80;75.72
72055;BME280;59936;51.490;5.436;2023-04-22T00:33:20;100669.69;;;5.84;75.78
72055;BME280;59936;51.490;5.436;2023-04-22T00:35:46;100667.88;;;5.84;75.67
72055;BME280;59936;51.490;5.436;2023-04-22T00:38:12;100670.53;;;5.84;75.74
72055;BME280;59936;51.490;5.436;2023-04-22T00:40:37;100670.84;;;5.91;75.76
72055;BME280;59936;51.490;5.436;2023-04-22T00:43:03;100665.94;;;5.96;75.53
72055;BME280;59936;51.490;5.436;2023-04-22T00:45:30;100667.19;;;5.92;75.35
72055;BME280;59936;51.490;5.436;2023-04-22T00:47:56;100660.34;;;5.89;75.40
72055;BME280;59936;51.490;5.436;2023-04-22T00:50:22;100683.72;;;5.95;75.91
72055;BME280;59936;51.490;5.436;2023-04-22T00:52:48;100683.72;;;5.95;75.91
72055;BME280;59936;51.490;5.436;2023-04-22T00:55:14;100675.03;;;5.93;76.52
72055;BME280;59936;51.490;5.436;2023-04-22T00:57:40;100677.28;;;5.98;81.34
72055;BME280;59936;51.490;5.436;2023-04-22T01:00:06;100674.91;;;6.05;79.46
72055;BME280;59936;51.490;5.436;2023-04-22T01:02:32;100678.97;;;6.09;77.88
72055;BME280;59936;51.490;5.436;2023-04-22T01:04:58;100677.84;;;6.11;76.88
72055;BME280;59936;51.490;5.436;2023-04-22T01:07:24;100676.88;;;6.12;76.44
72055;BME280;59936;51.490;5.436;2023-04-22T01:09:50;100668.47;;;6.17;76.45
72055;BME280;59936;51.490;5.436;2023-04-22T01:12:16;100665.38;;;6.21;76.21
72055;BME280;59936;51.490;5.436;2023-04-22T01:14:42;100666.66;;;6.27;80.75
72055;BME280;59936;51.490;5.436;2023-04-22T01:17:08;100674.09;;;6.33;78.36
72055;BME280;59936;51.490;5.436;2023-04-22T01:19:34;100665.81;;;6.36;77.51
72055;BME280;59936;51.490;5.436;2023-04-22T01:22:00;100660.22;;;6.39;77.29
72055;BME280;59936;51.490;5.436;2023-04-22T01:24:26;100665.56;;;6.39;76.69
72055;BME280;59936;51.490;5.436;2023-04-22T01:26:52;100654.78;;;6.41;76.44
72055;BME280;59936;51.490;5.436;2023-04-22T01:29:19;100659.50;;;6.47;77.46
72055;BME280;59936;51.490;5.436;2023-04-22T01:31:45;100661.03;;;6.49;76.97
72055;BME280;59936;51.490;5.436;2023-04-22T01:34:11;100661.59;;;6.53;76.89
72055;BME280;59936;51.490;5.436;2023-04-22T01:36:37;100655.44;;;6.52;76.58
72055;BME280;59936;51.490;5.436;2023-04-22T01:39:03;100660.91;;;6.51;76.49
72055;BME280;59936;51.490;5.436;2023-04-22T01:41:29;100650.69;;;6.46;78.49
72055;BME280;59936;51.490;5.436;2023-04-22T01:43:57;100659.09;;;6.51;76.94
72055;BME280;59936;51.490;5.436;2023-04-22T01:46:23;100663.56;;;6.51;76.68
72055;BME280;59936;51.490;5.436;2023-04-22T01:48:48;100653.63;;;6.53;76.70
72055;BME280;59936;51.490;5.436;2023-04-22T01:51:18;100657.13;;;6.53;76.70
72055;BME280;59936;51.490;5.436;2023-04-22T01:53:44;100661.31;;;6.56;76.56
72055;BME280;59936;51.490;5.436;2023-04-22T01:56:10;100655.16;;;6.55;76.50
72055;BME280;59936;51.490;5.436;2023-04-22T01:58:38;100655.16;;;6.55;76.64
72055;BME280;59936;51.490;5.436;2023-04-22T02:01:04;100656.28;;;6.62;76.68
72055;BME280;59936;51.490;5.436;2023-04-22T02:03:30;100656.28;;;6.62;76.68
72055;BME280;59936;51.490;5.436;2023-04-22T02:05:56;100646.50;;;6.63;77.02
72055;BME280;59936;51.490;5.436;2023-04-22T02:08:21;100650.97;;;6.62;76.90
72055;BME280;59936;51.490;5.436;2023-04-22T02:10:47;100648.31;;;6.62;76.90
72055;BME280;59936;51.490;5.436;2023-04-22T02:13:13;100652.66;;;6.63;76.83
72055;BME280;59936;51.490;5.436;2023-04-22T02:15:39;100651.66;;;6.64;76.83
72055;BME280;59936;51.490;5.436;2023-04-22T02:18:05;100655.72;;;6.69;77.25
72055;BME280;59936;51.490;5.436;2023-04-22T02:20:31;100655.72;;;6.69;77.25
72055;BME280;59936;51.490;5.436;2023-04-22T02:22:57;100652.78;;;6.72;77.83
72055;BME280;59936;51.490;5.436;2023-04-22T02:25:23;100649.69;;;6.76;77.84
72055;BME280;59936;51.490;5.436;2023-04-22T02:27:49;100637.66;;;6.72;79.32
72055;BME280;59936;51.490;5.436;2023-04-22T02:30:15;100641.31;;;6.71;77.87
72055;BME280;59936;51.490;5.436;2023-04-22T02:32:41;100641.44;;;6.70;77.76
72055;BME280;59936;51.490;5.436;2023-04-22T02:35:07;100633.47;;;6.70;78.29
72055;BME280;59936;51.490;5.436;2023-04-22T02:37:33;100635.53;;;6.66;77.75
72055;BME280;59936;51.490;5.436;2023-04-22T02:39:58;100640.31;;;6.62;80.36
72055;BME280;59936;51.490;5.436;2023-04-22T02:42:24;100640.00;;;6.65;78.61
72055;BME280;59936;51.490;5.436;2023-04-22T02:44:50;100630.22;;;6.66;77.92
72055;BME280;59936;51.490;5.436;2023-04-22T02:47:16;100635.53;;;6.66;77.69
72055;BME280;59936;51.490;5.436;2023-04-22T02:49:42;100640.72;;;6.68;77.50
72055;BME280;59936;51.490;5.436;2023-04-22T02:52:08;100629.97;;;6.69;77.94
72055;BME280;59936;51.490;5.436;2023-04-22T02:54:33;100627.72;;;6.74;78.49
72055;BME280;59936;51.490;5.436;2023-04-22T02:56:59;100621.56;;;6.74;77.92
72055;BME280;59936;51.490;5.436;2023-04-22T02:59:25;100632.91;;;6.76;77.83
72055;BME280;59936;51.490;5.436;2023-04-22T03:01:51;100632.91;;;6.76;77.83
72055;BME280;59936;51.490;5.436;2023-04-22T03:04:17;100629.41;;;6.75;77.76
72055;BME280;59936;51.490;5.436;2023-04-22T03:06:43;100631.50;;;6.81;77.59
72055;BME280;59936;51.490;5.436;2023-04-22T03:09:08;100631.50;;;6.81;77.59
72055;BME280;59936;51.490;5.436;2023-04-22T03:11:34;100628.00;;;6.81;77.62
72055;BME280;59936;51.490;5.436;2023-04-22T03:14:00;100626.72;;;6.85;77.57
72055;BME280;59936;51.490;5.436;2023-04-22T03:16:26;100621.00;;;6.80;78.49
72055;BME280;59936;51.490;5.436;2023-04-22T03:18:52;100619.25;;;6.88;77.66
72055;BME280;59936;51.490;5.436;2023-04-22T03:21:17;100619.25;;;6.88;77.66
72055;BME280;59936;51.490;5.436;2023-04-22T03:23:43;100605.25;;;6.86;77.68
72055;BME280;59936;51.490;5.436;2023-04-22T03:26:09;100609.78;;;6.86;77.94
72055;BME280;59936;51.490;5.436;2023-04-22T03:28:35;100608.38;;;6.82;81.11
72055;BME280;59936;51.490;5.436;2023-04-22T03:31:01;100599.41;;;6.83;79.31
72055;BME280;59936;51.490;5.436;2023-04-22T03:33:26;100598.56;;;6.82;78.49
72055;BME280;59936;51.490;5.436;2023-04-22T03:35:52;100590.72;;;6.81;78.35
72055;BME280;59936;51.490;5.436;2023-04-22T03:38:18;100584.72;;;6.79;78.13
72055;BME280;59936;51.490;5.436;2023-04-22T03:40:44;100578.56;;;6.78;78.03
72055;BME280;59936;51.490;5.436;2023-04-22T03:43:10;100571.41;;;6.79;78.17
72055;BME280;59936;51.490;5.436;2023-04-22T03:45:36;100583.59;;;6.81;78.35
72055;BME280;59936;51.490;5.436;2023-04-22T03:48:02;100577.56;;;6.79;78.13
72055;BME280;59936;51.490;5.436;2023-04-22T03:50:28;100585.41;;;6.81;78.54
72055;BME280;59936;51.490;5.436;2023-04-22T03:52:53;100572.34;;;6.87;78.65
72055;BME280;59936;51.490;5.436;2023-04-22T03:55:19;100572.34;;;6.87;78.65
72055;BME280;59936;51.490;5.436;2023-04-22T03:57:45;100572.78;;;6.83;78.38
72055;BME280;59936;51.490;5.436;2023-04-22T04:00:11;100576.44;;;6.82;78.30
72055;BME280;59936;51.490;5.436;2023-04-22T04:02:37;100558.78;;;6.81;78.50
72055;BME280;59936;51.490;5.436;2023-04-22T04:05:03;100562.84;;;6.85;78.93
72055;BME280;59936;51.490;5.436;2023-04-22T04:07:29;100565.75;;;6.91;84.59
72055;BME280;59936;51.490;5.436;2023-04-22T04:09:55;100565.75;;;6.91;84.59
72055;BME280;59936;51.490;5.436;2023-04-22T04:12:21;100561.69;;;6.87;81.68
72055;BME280;59936;51.490;5.436;2023-04-22T04:14:46;100548.56;;;6.86;80.65
72055;BME280;59936;51.490;5.436;2023-04-22T04:17:12;100554.88;;;6.85;79.89
72055;BME280;59936;51.490;5.436;2023-04-22T04:19:38;100553.03;;;6.85;79.43
72055;BME280;59936;51.490;5.436;2023-04-22T04:22:04;100561.88;;;6.86;80.02
72055;BME280;59936;51.490;5.436;2023-04-22T04:24:30;100552.72;;;6.88;80.50
72055;BME280;59936;51.490;5.436;2023-04-22T04:26:56;100551.75;;;6.89;80.45
72055;BME280;59936;51.490;5.436;2023-04-22T04:29:21;100551.59;;;6.91;81.70
72055;BME280;59936;51.490;5.436;2023-04-22T04:31:47;100557.47;;;6.94;82.15
72055;BME280;59936;51.490;5.436;2023-04-22T04:34:13;100553.97;;;6.94;80.46
72055;BME280;59936;51.490;5.436;2023-04-22T04:36:39;100559.28;;;6.94;79.64
72055;BME280;59936;51.490;5.436;2023-04-22T04:39:05;100559.72;;;6.89;81.13
72055;BME280;59936;51.490;5.436;2023-04-22T04:41:31;100552.69;;;6.98;79.98
72055;BME280;59936;51.490;5.436;2023-04-22T04:43:57;100552.69;;;6.98;79.98
72055;BME280;59936;51.490;5.436;2023-04-22T04:46:23;100549.34;;;6.96;79.51
72055;BME280;59936;51.490;5.436;2023-04-22T04:48:49;100553.81;;;6.95;79.24
72055;BME280;59936;51.490;5.436;2023-04-22T04:51:15;100556.47;;;6.95;79.17
72055;BME280;59936;51.490;5.436;2023-04-22T04:53:40;100559.00;;;6.97;78.95
72055;BME280;59936;51.490;5.436;2023-04-22T04:56:06;100561.94;;;6.94;80.04
72055;BME280;59936;51.490;5.436;2023-04-22T04:58:32;100569.38;;;7.00;79.12
72055;BME280;59936;51.490;5.436;2023-04-22T05:00:58;100567.09;;;7.05;78.90
72055;BME280;59936;51.490;5.436;2023-04-22T05:03:24;100569.44;;;7.08;78.81
72055;BME280;59936;51.490;5.436;2023-04-22T05:05:49;100572.66;;;7.12;78.73
72055;BME280;59936;51.490;5.436;2023-04-22T05:08:15;100560.03;;;7.14;78.67
72055;BME280;59936;51.490;5.436;2023-04-22T05:10:41;100560.59;;;7.17;78.90
72055;BME280;59936;51.490;5.436;2023-04-22T05:13:07;100562.25;;;7.18;78.99
72055;BME280;59936;51.490;5.436;2023-04-22T05:15:33;100563.94;;;7.19;79.96
72055;BME280;59936;51.490;5.436;2023-04-22T05:17:59;100551.31;;;7.21;79.66
72055;BME280;59936;51.490;5.436;2023-04-22T05:20:25;100542.19;;;7.24;79.25
72055;BME280;59936;51.490;5.436;2023-04-22T05:22:50;100554.59;;;7.33;79.52
72055;BME280;59936;51.490;5.436;2023-04-22T05:25:16;100554.59;;;7.33;79.52
72055;BME280;59936;51.490;5.436;2023-04-22T05:27:42;100558.50;;;7.39;79.03
72055;BME280;59936;51.490;5.436;2023-04-22T05:30:08;100564.47;;;7.50;78.65
72055;BME280;59936;51.490;5.436;2023-04-22T05:32:34;100556.09;;;7.63;78.30
72055;BME280;59936;51.490;5.436;2023-04-22T05:35:00;100545.81;;;7.86;78.32
72055;BME280;59936;51.490;5.436;2023-04-22T05:37:26;100545.81;;;7.86;78.32
72055;BME280;59936;51.490;5.436;2023-04-22T05:39:52;100541.56;;;7.93;78.45
72055;BME280;59936;51.490;5.436;2023-04-22T05:42:18;100544.44;;;7.99;78.50
72055;BME280;59936;51.490;5.436;2023-04-22T05:44:44;100543.66;;;8.07;78.29
72055;BME280;59936;51.490;5.436;2023-04-22T05:47:10;100539.59;;;8.21;78.06
72055;BME280;59936;51.490;5.436;2023-04-22T05:49:35;100541.72;;;8.35;77.89
72055;BME280;59936;51.490;5.436;2023-04-22T05:52:01;100549.47;;;8.46;77.61
72055;BME280;59936;51.490;5.436;2023-04-22T05:54:27;100551.34;;;8.54;77.63
72055;BME280;59936;51.490;5.436;2023-04-22T05:56:53;100543.38;;;8.62;78.64
72055;BME280;59936;51.490;5.436;2023-04-22T05:59:19;100537.41;;;8.68;78.40
72055;BME280;59936;51.490;5.436;2023-04-22T06:01:45;100544.41;;;8.95;78.37
72055;BME280;59936;51.490;5.436;2023-04-22T06:04:11;100544.41;;;8.95;78.37
72055;BME280;59936;51.490;5.436;2023-04-22T06:06:37;100531.75;;;9.39;77.45
72055;BME280;59936;51.490;5.436;2023-04-22T06:09:02;100531.75;;;9.39;77.45
72055;BME280;59936;51.490;5.436;2023-04-22T06:11:28;100528.91;;;9.49;78.97
72055;BME280;59936;51.490;5.436;2023-04-22T06:13:54;100540.31;;;9.67;77.24
72055;BME280;59936;51.490;5.436;2023-04-22T06:16:21;100534.13;;;9.74;78.43
72055;BME280;59936;51.490;5.436;2023-04-22T06:18:47;100536.31;;;9.71;77.50
72055;BME280;59936;51.490;5.436;2023-04-22T06:21:13;100548.84;;;9.79;77.12
72055;BME280;59936;51.490;5.436;2023-04-22T06:23:39;100540.34;;;9.99;76.61
72055;BME280;59936;51.490;5.436;2023-04-22T06:26:04;100530.31;;;10.26;76.25
72055;BME280;59936;51.490;5.436;2023-04-22T06:28:30;100520.25;;;10.44;76.17
72055;BME280;59936;51.490;5.436;2023-04-22T06:30:56;100529.09;;;10.53;78.25
72055;BME280;59936;51.490;5.436;2023-04-22T06:33:22;100527.19;;;10.77;76.60
72055;BME280;59936;51.490;5.436;2023-04-22T06:35:47;100528.44;;;11.06;77.63
72055;BME280;59936;51.490;5.436;2023-04-22T06:38:13;100524.69;;;11.23;75.52
72055;BME280;59936;51.490;5.436;2023-04-22T06:40:39;100525.03;;;11.20;76.99
72055;BME280;59936;51.490;5.436;2023-04-22T06:43:05;100525.03;;;11.20;76.99
72055;BME280;59936;51.490;5.436;2023-04-22T06:45:31;100510.91;;;11.34;79.91
72055;BME280;59936;51.490;5.436;2023-04-22T06:47:56;100505.88;;;11.31;78.33
72055;BME280;59936;51.490;5.436;2023-04-22T06:50:22;100512.75;;;11.34;80.85
72055;BME280;59936;51.490;5.436;2023-04-22T06:52:48;100505.91;;;11.54;78.08
72055;BME280;59936;51.490;5.436;2023-04-22T06:55:14;100505.56;;;11.80;80.30
72055;BME280;59936;51.490;5.436;2023-04-22T06:57:39;100508.13;;;11.73;78.72
72055;BME280;59936;51.490;5.436;2023-04-22T07:00:06;100513.41;;;12.27;78.08
72055;BME280;59936;51.490;5.436;2023-04-22T07:02:32;100504.63;;;12.48;77.83
72055;BME280;59936;51.490;5.436;2023-04-22T07:04:58;100504.63;;;12.48;77.83
72055;BME280;59936;51.490;5.436;2023-04-22T07:07:23;100508.38;;;12.91;77.28
72055;BME280;59936;51.490;5.436;2023-04-22T07:09:49;100505.94;;;13.11;76.66
72055;BME280;59936;51.490;5.436;2023-04-22T07:12:15;100491.25;;;13.28;75.89
72055;BME280;59936;51.490;5.436;2023-04-22T07:14:44;100500.19;;;13.50;76.51
72055;BME280;59936;51.490;5.436;2023-04-22T07:17:11;100494.50;;;13.81;75.97
72055;BME280;59936;51.490;5.436;2023-04-22T07:19:37;100491.50;;;13.69;75.57
72055;BME280;59936;51.490;5.436;2023-04-22T07:22:03;100498.56;;;13.34;76.70
72055;BME280;59936;51.490;5.436;2023-04-22T07:24:29;100491.53;;;13.19;77.21
72055;BME280;59936;51.490;5.436;2023-04-22T07:26:55;100496.16;;;12.89;77.46
72055;BME280;59936;51.490;5.436;2023-04-22T07:29:21;100498.09;;;12.65;77.40
72055;BME280;59936;51.490;5.436;2023-04-22T07:31:47;100501.84;;;13.15;77.48
72055;BME280;59936;51.490;5.436;2023-04-22T07:34:12;100501.59;;;13.46;76.60
72055;BME280;59936;51.490;5.436;2023-04-22T07:36:39;100503.34;;;13.54;76.80
72055;BME280;59936;51.490;5.436;2023-04-22T07:39:04;100493.81;;;13.72;76.60
72055;BME280;59936;51.490;5.436;2023-04-22T07:41:30;100489.50;;;13.57;76.55
72055;BME280;59936;51.490;5.436;2023-04-22T07:43:56;100498.66;;;13.62;77.42
72055;BME280;59936;51.490;5.436;2023-04-22T07:46:22;100505.84;;;14.19;78.18
72055;BME280;59936;51.490;5.436;2023-04-22T07:48:48;100511.19;;;14.12;76.13
72055;BME280;59936;51.490;5.436;2023-04-22T07:51:14;100510.31;;;13.91;76.66
72055;BME280;59936;51.490;5.436;2023-04-22T07:53:39;100501.69;;;13.74;77.21
72055;BME280;59936;51.490;5.436;2023-04-22T07:56:05;100484.75;;;13.80;76.94
72055;BME280;59936;51.490;5.436;2023-04-22T07:58:31;100483.56;;;14.66;76.95
72055;BME280;59936;51.490;5.436;2023-04-22T08:00:57;100477.47;;;15.33;75.48
72055;BME280;59936;51.490;5.436;2023-04-22T08:03:23;100471.72;;;15.43;74.71
72055;BME280;59936;51.490;5.436;2023-04-22T08:05:49;100468.78;;;15.38;75.02
72055;BME280;59936;51.490;5.436;2023-04-22T08:08:14;100465.91;;;15.52;75.02
72055;BME280;59936;51.490;5.436;2023-04-22T08:10:40;100455.56;;;15.63;74.59
72055;BME280;59936;51.490;5.436;2023-04-22T08:13:06;100459.69;;;15.52;74.37
72055;BME280;59936;51.490;5.436;2023-04-22T08:15:32;100458.91;;;15.71;74.04
72055;BME280;59936;51.490;5.436;2023-04-22T08:17:58;100464.09;;;16.12;73.77
72055;BME280;59936;51.490;5.436;2023-04-22T08:20:24;100455.72;;;16.73;73.00
72055;BME280;59936;51.490;5.436;2023-04-22T08:22:50;100452.88;;;17.51;72.26
72055;BME280;59936;51.490;5.436;2023-04-22T08:25:16;100457.31;;;17.45;71.01
72055;BME280;59936;51.490;5.436;2023-04-22T08:27:42;100448.28;;;16.42;71.39
72055;BME280;59936;51.490;5.436;2023-04-22T08:30:08;100448.28;;;16.42;71.39
72055;BME280;59936;51.490;5.436;2023-04-22T08:32:34;100449.56;;;16.07;73.35
72055;BME280;59936;51.490;5.436;2023-04-22T08:35:00;100446.66;;;16.15;71.89
72055;BME280;59936;51.490;5.436;2023-04-22T08:37:26;100440.97;;;16.69;71.58
72055;BME280;59936;51.490;5.436;2023-04-22T08:39:52;100444.31;;;17.54;70.88
72055;BME280;59936;51.490;5.436;2023-04-22T08:42:19;100433.69;;;18.34;69.12
72055;BME280;59936;51.490;5.436;2023-04-22T08:44:45;100422.06;;;18.26;67.47
72055;BME280;59936;51.490;5.436;2023-04-22T08:47:13;100419.06;;;18.35;68.41
72055;BME280;59936;51.490;5.436;2023-04-22T08:49:39;100413.94;;;18.51;68.35
72055;BME280;59936;51.490;5.436;2023-04-22T08:52:06;100405.63;;;18.46;67.59
72055;BME280;59936;51.490;5.436;2023-04-22T08:54:32;100401.91;;;18.77;68.77
72055;BME280;59936;51.490;5.436;2023-04-22T08:56:58;100403.19;;;19.41;67.68
72055;BME280;59936;51.490;5.436;2023-04-22T08:59:25;100409.25;;;19.67;67.13
72055;BME280;59936;51.490;5.436;2023-04-22T09:01:51;100404.78;;;19.60;66.58
72055;BME280;59936;51.490;5.436;2023-04-22T09:04:17;100408.53;;;19.00;67.97
72055;BME280;59936;51.490;5.436;2023-04-22T09:06:43;100408.53;;;19.00;67.97
72055;BME280;59936;51.490;5.436;2023-04-22T09:09:09;100412.09;;;19.72;66.11
72055;BME280;59936;51.490;5.436;2023-04-22T09:11:35;100411.19;;;20.13;64.87
72055;BME280;59936;51.490;5.436;2023-04-22T09:14:05;100410.75;;;19.39;66.08
72055;BME280;59936;51.490;5.436;2023-04-22T09:16:32;100408.00;;;19.09;64.06
72055;BME280;59936;51.490;5.436;2023-04-22T09:18:58;100413.00;;;19.24;66.42
72055;BME280;59936;51.490;5.436;2023-04-22T09:21:24;100404.03;;;19.53;64.36
72055;BME280;59936;51.490;5.436;2023-04-22T09:23:52;100408.69;;;19.76;64.33
72055;BME280;59936;51.490;5.436;2023-04-22T09:26:19;100400.31;;;19.36;63.91
72055;BME280;59936;51.490;5.436;2023-04-22T09:28:49;100393.13;;;20.30;62.98
72055;BME280;59936;51.490;5.436;2023-04-22T09:31:15;100389.84;;;20.40;58.28
72055;BME280;59936;51.490;5.436;2023-04-22T09:33:49;100396.19;;;20.10;62.46
72055;BME280;59936;51.490;5.436;2023-04-22T09:36:15;100394.31;;;20.11;61.89
72055;BME280;59936;51.490;5.436;2023-04-22T09:38:51;100386.16;;;20.46;62.45
72055;BME280;59936;51.490;5.436;2023-04-22T09:41:17;100385.81;;;21.22;61.08
72055;BME280;59936;51.490;5.436;2023-04-22T09:43:42;100382.97;;;21.46;53.95
72055;BME280;59936;51.490;5.436;2023-04-22T09:46:09;100386.13;;;20.57;62.92
72055;BME280;59936;51.490;5.436;2023-04-22T09:48:41;100384.94;;;20.53;62.45
72055;BME280;59936;51.490;5.436;2023-04-22T09:51:14;100397.28;;;20.44;55.80
72055;BME280;59936;51.490;5.436;2023-04-22T09:53:40;100403.41;;;20.05;58.21
72055;BME280;59936;51.490;5.436;2023-04-22T09:56:06;100400.09;;;20.26;61.48
72055;BME280;59936;51.490;5.436;2023-04-22T09:58:38;100394.78;;;20.54;60.27
72055;BME280;59936;51.490;5.436;2023-04-22T10:01:04;100397.84;;;20.58;55.38
72055;BME280;59936;51.490;5.436;2023-04-22T10:03:30;100388.09;;;21.14;60.09
72055;BME280;59936;51.490;5.436;2023-04-22T10:05:56;100401.06;;;21.35;58.98
72055;BME280;59936;51.490;5.436;2023-04-22T10:08:22;100399.09;;;21.47;58.31
72055;BME280;59936;51.490;5.436;2023-04-22T10:10:48;100386.72;;;21.73;58.62
72055;BME280;59936;51.490;5.436;2023-04-22T10:13:14;100402.78;;;21.41;58.27
72055;BME280;59936;51.490;5.436;2023-04-22T10:15:43;100402.78;;;21.41;58.27
72055;BME280;59936;51.490;5.436;2023-04-22T10:18:16;100402.63;;;20.91;58.61
72055;BME280;59936;51.490;5.436;2023-04-22T10:20:44;100401.25;;;20.65;55.73
72055;BME280;59936;51.490;5.436;2023-04-22T10:23:13;100406.94;;;19.82;57.51
72055;BME280;59936;51.490;5.436;2023-04-22T10:25:39;100401.88;;;19.97;58.13
72055;BME280;59936;51.490;5.436;2023-04-22T10:28:09;100393.47;;;20.57;57.22
72055;BME280;59936;51.490;5.436;2023-04-22T10:30:37;100398.66;;;20.98;55.36
72055;BME280;59936;51.490;5.436;2023-04-22T10:38:40;100390.09;;;20.90;53.65
72055;BME280;59936;51.490;5.436;2023-04-22T10:41:12;100376.34;;;20.45;55.03
72055;BME280;59936;51.490;5.436;2023-04-22T10:48:56;100387.06;;;19.28;55.66
72055;BME280;59936;51.490;5.436;2023-04-22T10:51:41;100385.31;;;19.04;57.07
72055;BME280;59936;51.490;5.436;2023-04-22T10:56:59;100383.69;;;18.84;56.06
72055;BME280;59936;51.490;5.436;2023-04-22T10:59:25;100395.91;;;18.57;56.58
72055;BME280;59936;51.490;5.436;2023-04-22T11:01:51;100405.75;;;18.33;57.90
72055;BME280;59936;51.490;5.436;2023-04-22T11:04:22;100409.50;;;17.89;58.26
72055;BME280;59936;51.490;5.436;2023-04-22T11:16:04;100409.41;;;17.46;58.90
72055;BME280;59936;51.490;5.436;2023-04-22T11:17:59;100409.25;;;17.27;59.28
72055;BME280;59936;51.490;5.436;2023-04-22T11:20:24;100398.97;;;16.67;61.41
72055;BME280;59936;51.490;5.436;2023-04-22T11:22:52;100401.72;;;16.40;62.68
72055;BME280;59936;51.490;5.436;2023-04-22T11:25:19;100395.72;;;16.32;62.55
72055;BME280;59936;51.490;5.436;2023-04-22T11:27:46;100399.47;;;16.24;62.71
72055;BME280;59936;51.490;5.436;2023-04-22T11:30:17;100404.88;;;16.17;63.05
72055;BME280;59936;51.490;5.436;2023-04-22T11:32:51;100409.03;;;16.00;62.98
72055;BME280;59936;51.490;5.436;2023-04-22T11:35:19;100410.09;;;15.93;63.93
72055;BME280;59936;51.490;5.436;2023-04-22T11:37:50;100404.25;;;16.02;63.54
72055;BME280;59936;51.490;5.436;2023-04-22T11:40:18;100404.25;;;16.02;63.54
72055;BME280;59936;51.490;5.436;2023-04-22T11:42:45;100407.59;;;16.04;63.81
72055;BME280;59936;51.490;5.436;2023-04-22T11:45:11;100414.41;;;16.20;63.17
72055;BME280;59936;51.490;5.436;2023-04-22T11:47:37;100407.56;;;16.31;63.13
72055;BME280;59936;51.490;5.436;2023-04-22T11:50:05;100415.03;;;16.42;62.83
72055;BME280;59936;51.490;5.436;2023-04-22T11:52:51;100414.41;;;16.53;62.96
72055;BME280;59936;51.490;5.436;2023-04-22T11:55:27;100414.34;;;16.66;63.53
72055;BME280;59936;51.490;5.436;2023-04-22T11:57:54;100409.56;;;16.68;63.21
72055;BME280;59936;51.490;5.436;2023-04-22T12:00:21;100411.22;;;16.76;66.96
72055;BME280;59936;51.490;5.436;2023-04-22T12:02:57;100412.44;;;16.80;62.81
72055;BME280;59936;51.490;5.436;2023-04-22T12:05:38;100415.31;;;16.85;63.05
72055;BME280;59936;51.490;5.436;2023-04-22T12:08:15;100412.91;;;17.08;62.71
72055;BME280;59936;51.490;5.436;2023-04-22T12:10:52;100409.63;;;17.44;62.63
72055;BME280;59936;51.490;5.436;2023-04-22T12:13:22;100413.25;;;17.88;61.54
72055;BME280;59936;51.490;5.436;2023-04-22T12:15:52;100413.78;;;18.21;60.86
72055;BME280;59936;51.490;5.436;2023-04-22T12:18:36;100403.72;;;18.28;60.99
72055;BME280;59936;51.490;5.436;2023-04-22T12:21:13;100406.19;;;18.30;62.30
72055;BME280;59936;51.490;5.436;2023-04-22T12:23:53;100418.59;;;18.38;62.15
72055;BME280;59936;51.490;5.436;2023-04-22T12:26:23;100418.59;;;18.38;62.15
72055;BME280;59936;51.490;5.436;2023-04-22T12:28:52;100418.38;;;17.96;62.45
72055;BME280;59936;51.490;5.436;2023-04-22T12:31:19;100419.50;;;17.64;63.52
72055;BME280;59936;51.490;5.436;2023-04-22T12:33:45;100409.19;;;17.41;64.02
72055;BME280;59936;51.490;5.436;2023-04-22T12:36:11;100416.50;;;17.47;63.97
72055;BME280;59936;51.490;5.436;2023-04-22T12:38:38;100421.00;;;16.70;65.84
72055;BME280;59936;51.490;5.436;2023-04-22T12:41:04;100421.00;;;16.70;65.84
72055;BME280;59936;51.490;5.436;2023-04-22T12:43:31;100425.44;;;16.32;66.87
72055;BME280;59936;51.490;5.436;2023-04-22T12:45:58;100434.59;;;16.11;67.18
72055;BME280;59936;51.490;5.436;2023-04-22T12:48:24;100446.44;;;15.90;67.46
72055;BME280;59936;51.490;5.436;2023-04-22T12:50:49;100449.31;;;15.55;68.26
72055;BME280;59936;51.490;5.436;2023-04-22T12:53:15;100454.84;;;15.21;70.06
72055;BME280;59936;51.490;5.436;2023-04-22T12:55:41;100451.78;;;14.90;69.23
72055;BME280;59936;51.490;5.436;2023-04-22T12:58:07;100453.59;;;14.76;69.73
72055;BME280;59936;51.490;5.436;2023-04-22T13:00:33;100459.56;;;14.71;70.72
72055;BME280;59936;51.490;5.436;2023-04-22T13:02:59;100458.72;;;14.64;70.10
72055;BME280;59936;51.490;5.436;2023-04-22T13:05:25;100462.78;;;14.53;71.15
72055;BME280;59936;51.490;5.436;2023-04-22T13:07:51;100467.72;;;14.43;70.14
72055;BME280;59936;51.490;5.436;2023-04-22T13:10:17;100462.53;;;14.42;70.35
72055;BME280;59936;51.490;5.436;2023-04-22T13:12:43;100462.53;;;14.48;70.18
72055;BME280;59936;51.490;5.436;2023-04-22T13:15:10;100454.34;;;14.63;69.81